Time;durP1;ratioP1;P1;durP2;ratioP2;P2;SDS_P1;SDS_P2;PMS_P1;PMS_P2;Temp;Humidity;BMP_temperature;BMP_pressure;BME280_temperature;BME280_humidity;BME280_pressure;Samples;Min_cycle;Max_cycle;Signal;HPM_P1;HPM_P2
2023/05/28 00:00:48;;;;;;;19.17;13.93;;;;;;;;;;5061931;28;20048;-75
2023/05/28 00:03:18;;;;;;;21.35;14.30;;;;;;;;;;5061005;28;20070;-76
2023/05/28 00:05:44;;;;;;;22.55;14.48;;;;;;;;;;5059883;28;20012;-76
2023/05/28 00:08:11;;;;;;;23.58;13.38;;;;;;;;;;5060580;28;20040;-75
2023/05/28 00:10:37;;;;;;;21.60;15.38;;;;;;;;;;5062777;28;20062;-76
2023/05/28 00:13:03;;;;;;;24.92;15.75;;;;;;;;;;5060315;28;20045;-75
2023/05/28 00:15:29;;;;;;;23.08;14.45;;;;;;;;;;5045828;28;20040;-76
2023/05/28 00:17:57;;;;;;;26.08;13.00;;;;;;;;;;5060693;28;20096;-75
2023/05/28 00:20:25;;;;;;;22.23;14.32;;;;;;;;;;5061528;28;20029;-75
2023/05/28 00:22:51;;;;;;;22.05;13.77;;;;;;;;;;5059243;28;20095;-76
2023/05/28 00:25:17;;;;;;;19.85;14.60;;;;;;;;;;5056424;28;20031;-76
2023/05/28 00:27:43;;;;;;;19.30;13.23;;;;;;;;;;5058729;28;20020;-75
2023/05/28 00:30:10;;;;;;;20.42;13.60;;;;;;;;;;5061451;28;20115;-75
2023/05/28 00:32:36;;;;;;;18.25;14.57;;;;;;;;;;5059572;28;20095;-75
2023/05/28 00:35:02;;;;;;;25.13;15.80;;;;;;;;;;5061358;28;20099;-75
2023/05/28 00:37:28;;;;;;;19.42;13.07;;;;;;;;;;5059348;28;20099;-75
2023/05/28 00:39:55;;;;;;;18.90;12.80;;;;;;;;;;5061281;28;20422;-75
2023/05/28 00:42:21;;;;;;;22.88;13.85;;;;;;;;;;5066071;28;20051;-75
2023/05/28 00:44:48;;;;;;;21.23;13.68;;;;;;;;;;5061988;28;20052;-75
2023/05/28 00:47:14;;;;;;;18.88;13.57;;;;;;;;;;5066346;28;20024;-75
2023/05/28 00:49:40;;;;;;;23.05;14.27;;;;;;;;;;5065211;28;20036;-75
2023/05/28 00:52:09;;;;;;;24.33;16.75;;;;;;;;;;5066917;28;20025;-75
2023/05/28 00:54:35;;;;;;;25.88;14.57;;;;;;;;;;5056748;28;20028;-75
2023/05/28 00:57:02;;;;;;;20.52;14.13;;;;;;;;;;5065456;28;20104;-75
2023/05/28 00:59:29;;;;;;;21.08;13.65;;;;;;;;;;5068918;28;20024;-75
2023/05/28 01:01:55;;;;;;;18.85;13.82;;;;;;;;;;5070003;28;20045;-75
2023/05/28 01:04:22;;;;;;;19.58;13.07;;;;;;;;;;5070771;28;20037;-75
2023/05/28 01:06:48;;;;;;;19.85;12.23;;;;;;;;;;5073810;28;20039;-75
2023/05/28 01:09:15;;;;;;;22.20;12.55;;;;;;;;;;5072331;28;20036;-75
2023/05/28 01:11:43;;;;;;;17.83;12.30;;;;;;;;;;5074121;28;20500;-75
2023/05/28 01:14:09;;;;;;;23.15;11.85;;;;;;;;;;5073574;28;20052;-75
2023/05/28 01:16:36;;;;;;;21.08;12.15;;;;;;;;;;5073605;28;20020;-75
2023/05/28 01:19:02;;;;;;;16.52;11.85;;;;;;;;;;5072434;28;20017;-75
2023/05/28 01:21:30;;;;;;;20.08;13.13;;;;;;;;;;5073875;28;20752;-75
2023/05/28 01:24:01;;;;;;;19.83;13.35;;;;;;;;;;5072491;28;20358;-75
2023/05/28 01:26:28;;;;;;;22.55;13.25;;;;;;;;;;5066321;28;20032;-75
2023/05/28 01:28:54;;;;;;;18.80;12.60;;;;;;;;;;5073271;28;20068;-74
2023/05/28 01:31:20;;;;;;;20.75;12.02;;;;;;;;;;5072149;28;20024;-75
2023/05/28 01:33:47;;;;;;;21.02;12.15;;;;;;;;;;5073540;28;20104;-75
2023/05/28 01:36:16;;;;;;;21.27;11.98;;;;;;;;;;5073305;28;20033;-75
2023/05/28 01:38:44;;;;;;;20.02;10.68;;;;;;;;;;5072707;28;20380;-75
2023/05/28 01:41:11;;;;;;;16.17;12.13;;;;;;;;;;5071744;28;20039;-75
2023/05/28 01:43:37;;;;;;;17.00;12.70;;;;;;;;;;5073295;28;20024;-75
2023/05/28 01:46:04;;;;;;;15.73;10.98;;;;;;;;;;5073426;28;20024;-75
2023/05/28 01:48:30;;;;;;;16.42;11.30;;;;;;;;;;5072951;28;20009;-75
2023/05/28 01:50:56;;;;;;;15.02;12.05;;;;;;;;;;5067223;28;20449;-75
2023/05/28 01:53:22;;;;;;;17.92;12.07;;;;;;;;;;5069778;28;20476;-75
2023/05/28 01:55:49;;;;;;;17.25;12.88;;;;;;;;;;5070057;28;20609;-74
2023/05/28 01:58:15;;;;;;;21.73;13.38;;;;;;;;;;5069965;28;20025;-75
2023/05/28 02:00:48;;;;;;;20.90;13.68;;;;;;;;;;5071380;28;20094;-74
2023/05/28 02:03:15;;;;;;;17.02;13.20;;;;;;;;;;5071583;28;20029;-74
2023/05/28 02:05:41;;;;;;;20.73;13.05;;;;;;;;;;5072890;28;20653;-75
2023/05/28 02:08:07;;;;;;;18.48;13.13;;;;;;;;;;5073037;28;20016;-74
2023/05/28 02:10:33;;;;;;;19.15;12.40;;;;;;;;;;5072697;28;20108;-75
2023/05/28 02:13:00;;;;;;;19.17;12.02;;;;;;;;;;5072500;28;20055;-75
2023/05/28 02:15:26;;;;;;;17.52;11.68;;;;;;;;;;5070957;28;20052;-75
2023/05/28 02:17:52;;;;;;;17.80;10.95;;;;;;;;;;5072302;28;20031;-75
2023/05/28 02:20:19;;;;;;;13.88;10.07;;;;;;;;;;5072483;28;20083;-75
2023/05/28 02:22:45;;;;;;;15.23;10.32;;;;;;;;;;5072405;28;20032;-75
2023/05/28 02:25:12;;;;;;;15.77;8.38;;;;;;;;;;5071090;28;20099;-75
2023/05/28 02:27:38;;;;;;;11.43;7.60;;;;;;;;;;5072338;28;20472;-75
2023/05/28 02:30:05;;;;;;;11.23;6.60;;;;;;;;;;5072401;28;20043;-75
2023/05/28 02:32:32;;;;;;;12.00;7.32;;;;;;;;;;5068922;28;20009;-75
2023/05/28 02:34:59;;;;;;;10.88;7.25;;;;;;;;;;5069374;28;20036;-75
2023/05/28 02:37:26;;;;;;;10.90;6.93;;;;;;;;;;5070225;28;20021;-75
2023/05/28 02:39:52;;;;;;;10.95;6.72;;;;;;;;;;5072295;28;20017;-75
2023/05/28 02:42:18;;;;;;;10.63;7.15;;;;;;;;;;5072158;28;20112;-75
2023/05/28 02:44:45;;;;;;;8.52;6.90;;;;;;;;;;5071871;28;20024;-75
2023/05/28 02:47:11;;;;;;;8.68;6.90;;;;;;;;;;5069450;28;20561;-75
2023/05/28 02:49:37;;;;;;;7.85;6.15;;;;;;;;;;5071909;28;20031;-74
2023/05/28 02:52:03;;;;;;;6.97;5.60;;;;;;;;;;5071242;28;20483;-75
2023/05/28 02:54:29;;;;;;;7.30;5.47;;;;;;;;;;5072145;28;20025;-75
2023/05/28 02:56:56;;;;;;;9.88;5.18;;;;;;;;;;5071866;28;20346;-75
2023/05/28 02:59:22;;;;;;;7.43;5.60;;;;;;;;;;5071631;28;20056;-75
2023/05/28 03:01:48;;;;;;;7.07;5.35;;;;;;;;;;5069839;28;20040;-75
2023/05/28 03:04:14;;;;;;;10.23;5.35;;;;;;;;;;5071625;28;20024;-75
2023/05/28 03:06:41;;;;;;;6.72;5.72;;;;;;;;;;5071550;28;20024;-75
2023/05/28 03:09:07;;;;;;;7.05;5.82;;;;;;;;;;5071690;28;20369;-76
2023/05/28 03:11:33;;;;;;;9.20;5.97;;;;;;;;;;5067325;28;20536;-75
2023/05/28 03:13:59;;;;;;;11.45;6.63;;;;;;;;;;5066753;28;20075;-75
2023/05/28 03:16:26;;;;;;;9.57;6.63;;;;;;;;;;5068019;28;20074;-75
2023/05/28 03:18:52;;;;;;;9.45;5.65;;;;;;;;;;5063539;28;20016;-75
2023/05/28 03:21:18;;;;;;;7.72;6.30;;;;;;;;;;5065738;28;20048;-75
2023/05/28 03:23:44;;;;;;;9.40;5.50;;;;;;;;;;5067688;28;20020;-75
2023/05/28 03:26:10;;;;;;;6.38;5.53;;;;;;;;;;5067153;28;20146;-75
2023/05/28 03:28:37;;;;;;;6.20;5.50;;;;;;;;;;5068198;28;20107;-75
2023/05/28 03:31:03;;;;;;;7.43;4.80;;;;;;;;;;5068592;28;20036;-75
2023/05/28 03:33:30;;;;;;;6.88;5.32;;;;;;;;;;5067238;28;20020;-75
2023/05/28 03:35:56;;;;;;;7.13;4.90;;;;;;;;;;5068244;28;20024;-75
2023/05/28 03:38:22;;;;;;;8.50;4.97;;;;;;;;;;5068772;28;20127;-74
2023/05/28 03:40:48;;;;;;;8.05;4.75;;;;;;;;;;5068393;28;20012;-75
2023/05/28 03:43:15;;;;;;;7.25;5.20;;;;;;;;;;5067812;28;20016;-76
2023/05/28 03:45:41;;;;;;;9.00;5.57;;;;;;;;;;5070450;28;20019;-75
2023/05/28 03:48:07;;;;;;;9.75;6.00;;;;;;;;;;5066945;28;20453;-75
2023/05/28 03:50:33;;;;;;;9.13;5.93;;;;;;;;;;5067058;28;20135;-75
2023/05/28 03:53:00;;;;;;;9.85;6.38;;;;;;;;;;5068045;28;20464;-75
2023/05/28 03:55:26;;;;;;;7.68;6.18;;;;;;;;;;5068619;28;20074;-74
2023/05/28 03:57:52;;;;;;;8.57;6.50;;;;;;;;;;5068391;28;20031;-75
2023/05/28 04:00:18;;;;;;;8.98;5.75;;;;;;;;;;5066525;28;20020;-75
2023/05/28 04:02:44;;;;;;;7.63;6.03;;;;;;;;;;5075864;28;20408;-75
2023/05/28 04:05:11;;;;;;;9.10;5.75;;;;;;;;;;5064783;28;20154;-74
2023/05/28 04:07:37;;;;;;;8.52;6.13;;;;;;;;;;5064425;28;20109;-75
2023/05/28 04:10:04;;;;;;;10.15;6.70;;;;;;;;;;5066544;28;20032;-75
2023/05/28 04:12:30;;;;;;;12.60;6.40;;;;;;;;;;5066299;28;20024;-74
2023/05/28 04:14:56;;;;;;;7.93;6.47;;;;;;;;;;5068243;28;20091;-75
2023/05/28 04:17:23;;;;;;;9.15;6.50;;;;;;;;;;5068037;28;20035;-75
2023/05/28 04:19:51;;;;;;;8.10;6.43;;;;;;;;;;5060263;28;20081;-75
2023/05/28 04:22:17;;;;;;;11.63;7.10;;;;;;;;;;5066488;28;20017;-75
2023/05/28 04:24:43;;;;;;;12.93;9.18;;;;;;;;;;5067861;28;20046;-75
2023/05/28 04:27:10;;;;;;;18.23;13.25;;;;;;;;;;5067713;28;20036;-75
2023/05/28 04:29:36;;;;;;;24.45;14.32;;;;;;;;;;5067838;28;20023;-75
2023/05/28 04:32:04;;;;;;;20.67;15.10;;;;;;;;;;5066356;28;20021;-75
2023/05/28 04:34:32;;;;;;;27.98;16.52;;;;;;;;;;5067735;28;20016;-75
2023/05/28 04:36:59;;;;;;;28.30;17.35;;;;;;;;;;5067673;28;20032;-75
2023/05/28 04:39:26;;;;;;;27.27;17.90;;;;;;;;;;5067249;28;20032;-75
2023/05/28 04:41:53;;;;;;;24.83;17.10;;;;;;;;;;5072072;28;20025;-75
2023/05/28 04:44:20;;;;;;;28.88;17.80;;;;;;;;;;5071455;28;20100;-75
2023/05/28 04:46:46;;;;;;;25.38;18.40;;;;;;;;;;5071725;28;20024;-75
2023/05/28 04:49:12;;;;;;;29.42;17.27;;;;;;;;;;5070350;28;20016;-75
2023/05/28 04:51:41;;;;;;;25.13;17.52;;;;;;;;;;5071497;28;20141;-75
2023/05/28 04:54:08;;;;;;;24.23;16.58;;;;;;;;;;5071468;28;20020;-75
2023/05/28 04:56:34;;;;;;;20.55;15.10;;;;;;;;;;5071634;28;20078;-76
2023/05/28 04:59:04;;;;;;;22.17;16.02;;;;;;;;;;5070236;28;20017;-76
2023/05/28 05:01:32;;;;;;;27.20;15.57;;;;;;;;;;5071764;28;20447;-76
2023/05/28 05:03:59;;;;;;;24.90;15.88;;;;;;;;;;5071514;28;20372;-76
2023/05/28 05:06:25;;;;;;;20.40;16.10;;;;;;;;;;5071153;28;20112;-76
2023/05/28 05:08:51;;;;;;;27.35;16.58;;;;;;;;;;5071708;28;20521;-76
2023/05/28 05:11:17;;;;;;;22.90;15.48;;;;;;;;;;5071464;28;20119;-76
2023/05/28 05:13:43;;;;;;;24.40;14.88;;;;;;;;;;5069740;28;20052;-76
2023/05/28 05:16:10;;;;;;;22.50;15.80;;;;;;;;;;5071329;28;20050;-76
2023/05/28 05:18:36;;;;;;;26.30;17.50;;;;;;;;;;5071250;28;20365;-76
2023/05/28 05:21:02;;;;;;;23.27;16.13;;;;;;;;;;5071279;28;20373;-76
2023/05/28 05:23:29;;;;;;;26.23;17.30;;;;;;;;;;5069480;28;20108;-76
2023/05/28 05:25:55;;;;;;;23.17;15.85;;;;;;;;;;5070762;28;20100;-76
2023/05/28 05:28:21;;;;;;;22.63;17.17;;;;;;;;;;5071082;28;20025;-76
2023/05/28 05:30:47;;;;;;;27.25;17.52;;;;;;;;;;5071127;28;20409;-76
2023/05/28 05:33:13;;;;;;;26.73;16.92;;;;;;;;;;5070652;28;20017;-76
2023/05/28 05:35:40;;;;;;;26.00;16.77;;;;;;;;;;5070624;28;20107;-77
2023/05/28 05:38:06;;;;;;;25.40;16.15;;;;;;;;;;5069550;28;20052;-77
2023/05/28 05:40:33;;;;;;;20.42;14.77;;;;;;;;;;5070722;28;20078;-76
2023/05/28 05:42:59;;;;;;;26.52;15.10;;;;;;;;;;5078704;28;20091;-76
2023/05/28 05:45:25;;;;;;;24.05;16.60;;;;;;;;;;5070629;28;20075;-76
2023/05/28 05:47:51;;;;;;;28.58;15.85;;;;;;;;;;5066914;28;20024;-76
2023/05/28 05:50:17;;;;;;;22.35;15.75;;;;;;;;;;5067233;28;20029;-76
2023/05/28 05:52:44;;;;;;;19.23;14.93;;;;;;;;;;5067169;28;20484;-76
2023/05/28 05:55:10;;;;;;;22.85;16.08;;;;;;;;;;5070507;28;20032;-76
2023/05/28 05:57:36;;;;;;;24.88;16.08;;;;;;;;;;5070394;28;20497;-76
2023/05/28 06:00:08;;;;;;;21.25;13.65;;;;;;;;;;5068727;28;20081;-73
2023/05/28 06:02:35;;;;;;;21.90;13.32;;;;;;;;;;5070151;28;20097;-75
2023/05/28 06:05:03;;;;;;;26.85;16.40;;;;;;;;;;5077754;28;20024;-75
2023/05/28 06:07:29;;;;;;;24.65;16.15;;;;;;;;;;5070062;28;20020;-75
2023/05/28 06:09:55;;;;;;;25.60;15.32;;;;;;;;;;5070199;28;20489;-75
2023/05/28 06:12:22;;;;;;;28.65;18.08;;;;;;;;;;5072206;28;20484;-74
2023/05/28 06:14:49;;;;;;;25.40;16.85;;;;;;;;;;5069032;28;20115;-75
2023/05/28 06:17:15;;;;;;;25.63;17.33;;;;;;;;;;5070295;28;20012;-74
2023/05/28 06:19:42;;;;;;;23.80;14.68;;;;;;;;;;5070152;28;20039;-75
2023/05/28 06:22:10;;;;;;;22.55;15.50;;;;;;;;;;5070345;28;20016;-74
2023/05/28 06:24:38;;;;;;;17.85;13.80;;;;;;;;;;5069984;28;20032;-74
2023/05/28 06:27:05;;;;;;;25.13;16.50;;;;;;;;;;5068639;28;20017;-74
2023/05/28 06:29:31;;;;;;;23.15;14.82;;;;;;;;;;5069799;28;20053;-74
2023/05/28 06:31:57;;;;;;;22.88;14.25;;;;;;;;;;5070022;28;20569;-75
2023/05/28 06:34:23;;;;;;;21.55;15.15;;;;;;;;;;5069594;28;20037;-74
2023/05/28 06:36:50;;;;;;;15.25;12.63;;;;;;;;;;5068420;28;20032;-74
2023/05/28 06:39:16;;;;;;;19.77;14.20;;;;;;;;;;5069516;28;20027;-74
2023/05/28 06:41:42;;;;;;;18.35;13.10;;;;;;;;;;5067288;28;20115;-75
2023/05/28 06:44:08;;;;;;;16.75;13.73;;;;;;;;;;5068354;28;20507;-75
2023/05/28 06:46:34;;;;;;;16.75;11.52;;;;;;;;;;5069404;28;20103;-75
2023/05/28 06:49:01;;;;;;;19.80;12.27;;;;;;;;;;5069601;28;20062;-75
2023/05/28 06:51:27;;;;;;;17.48;11.13;;;;;;;;;;5068035;28;20424;-74
2023/05/28 06:53:53;;;;;;;14.98;10.88;;;;;;;;;;5069198;28;20024;-76
2023/05/28 06:56:19;;;;;;;16.23;11.98;;;;;;;;;;5069245;28;20393;-76
2023/05/28 06:58:47;;;;;;;21.65;13.82;;;;;;;;;;5069598;28;20103;-75
2023/05/28 07:01:13;;;;;;;22.75;15.77;;;;;;;;;;5059906;28;20044;-75
2023/05/28 07:03:39;;;;;;;19.92;13.45;;;;;;;;;;5068481;28;20103;-74
2023/05/28 07:06:05;;;;;;;17.77;12.27;;;;;;;;;;5069397;28;20062;-75
2023/05/28 07:08:32;;;;;;;17.35;12.80;;;;;;;;;;5067771;28;20035;-74
2023/05/28 07:10:58;;;;;;;19.45;12.45;;;;;;;;;;5069242;28;20064;-74
2023/05/28 07:13:24;;;;;;;15.95;11.68;;;;;;;;;;5068428;28;20255;-76
2023/05/28 07:15:50;;;;;;;19.52;13.60;;;;;;;;;;5065827;28;20519;-74
2023/05/28 07:18:17;;;;;;;21.27;12.77;;;;;;;;;;5065774;28;20055;-75
2023/05/28 07:20:43;;;;;;;19.33;14.30;;;;;;;;;;5067339;28;20161;-75
2023/05/28 07:23:11;;;;;;;18.30;13.63;;;;;;;;;;5068635;28;20115;-76
2023/05/28 07:25:37;;;;;;;16.90;12.10;;;;;;;;;;5069331;28;20411;-75
2023/05/28 07:28:03;;;;;;;18.42;11.70;;;;;;;;;;5069172;28;20461;-73
2023/05/28 07:30:30;;;;;;;16.75;11.90;;;;;;;;;;5067275;28;20119;-75
2023/05/28 07:32:56;;;;;;;19.67;11.40;;;;;;;;;;5068362;28;20028;-75
2023/05/28 07:35:22;;;;;;;16.85;11.98;;;;;;;;;;5068501;28;20593;-75
2023/05/28 07:37:48;;;;;;;14.88;10.35;;;;;;;;;;5068313;28;20104;-74
2023/05/28 07:40:15;;;;;;;15.05;10.50;;;;;;;;;;5074821;28;20016;-75
2023/05/28 07:42:41;;;;;;;15.57;11.65;;;;;;;;;;5064609;28;20517;-75
2023/05/28 07:45:08;;;;;;;14.75;11.05;;;;;;;;;;5064761;28;20032;-74
2023/05/28 07:47:34;;;;;;;11.95;10.43;;;;;;;;;;5064900;28;20124;-75
2023/05/28 07:50:00;;;;;;;15.63;11.80;;;;;;;;;;5065146;28;20395;-75
2023/05/28 07:52:29;;;;;;;15.43;12.07;;;;;;;;;;5063091;28;20086;-74
2023/05/28 07:54:58;;;;;;;16.33;12.07;;;;;;;;;;5066890;28;20543;-74
2023/05/28 07:57:24;;;;;;;12.40;9.35;;;;;;;;;;5067785;28;20047;-74
2023/05/28 07:59:50;;;;;;;14.82;10.02;;;;;;;;;;5068347;28;20023;-75
2023/05/28 08:02:17;;;;;;;12.02;10.75;;;;;;;;;;5068170;28;20204;-75
2023/05/28 08:04:43;;;;;;;15.98;11.98;;;;;;;;;;5065735;28;20020;-74
2023/05/28 08:07:12;;;;;;;20.42;13.15;;;;;;;;;;5063098;28;20104;-76
2023/05/28 08:09:38;;;;;;;18.25;11.88;;;;;;;;;;5064128;28;20493;-75
2023/05/28 08:12:05;;;;;;;22.33;13.23;;;;;;;;;;5066515;28;20573;-74
2023/05/28 08:14:31;;;;;;;22.45;13.75;;;;;;;;;;5067832;28;20078;-74
2023/05/28 08:16:57;;;;;;;26.45;14.95;;;;;;;;;;5065792;28;20218;-74
2023/05/28 08:19:24;;;;;;;20.08;13.13;;;;;;;;;;5070381;28;20103;-75
2023/05/28 08:21:50;;;;;;;17.98;12.27;;;;;;;;;;5072157;28;20101;-75
2023/05/28 08:24:17;;;;;;;26.90;14.45;;;;;;;;;;5067735;28;20472;-75
2023/05/28 08:26:43;;;;;;;19.38;12.65;;;;;;;;;;5067979;28;20024;-74
2023/05/28 08:29:09;;;;;;;18.45;12.35;;;;;;;;;;5066762;28;20028;-75
2023/05/28 08:31:36;;;;;;;14.55;11.25;;;;;;;;;;5066809;28;20066;-74
2023/05/28 08:34:02;;;;;;;15.82;11.40;;;;;;;;;;5067673;28;20037;-75
2023/05/28 08:36:28;;;;;;;18.30;13.20;;;;;;;;;;5066689;28;20154;-74
2023/05/28 08:38:55;;;;;;;24.50;14.98;;;;;;;;;;5067976;28;20095;-74
2023/05/28 08:41:22;;;;;;;21.92;13.90;;;;;;;;;;5067966;28;20046;-75
2023/05/28 08:43:48;;;;;;;18.38;12.63;;;;;;;;;;5067979;28;20377;-75
2023/05/28 08:46:15;;;;;;;14.82;12.75;;;;;;;;;;5067889;28;20104;-75
2023/05/28 08:48:42;;;;;;;16.67;12.65;;;;;;;;;;5066941;28;20100;-74
2023/05/28 08:51:08;;;;;;;16.52;12.63;;;;;;;;;;5067301;28;20025;-75
2023/05/28 08:53:44;;;;;;;20.77;13.55;;;;;;;;;;5067391;28;20040;-75
2023/05/28 08:56:10;;;;;;;16.88;12.43;;;;;;;;;;5066539;28;20017;-74
2023/05/28 08:58:40;;;;;;;14.20;11.77;;;;;;;;;;5067681;28;20094;-75
2023/05/28 09:01:07;;;;;;;18.13;13.05;;;;;;;;;;5067022;28;20917;-74
2023/05/28 09:03:34;;;;;;;14.57;11.20;;;;;;;;;;5068389;28;20875;-73
2023/05/28 09:06:01;;;;;;;20.40;12.57;;;;;;;;;;5068882;28;20103;-74
2023/05/28 09:08:28;;;;;;;20.58;11.95;;;;;;;;;;5075166;28;20021;-73
2023/05/28 09:10:56;;;;;;;18.05;11.60;;;;;;;;;;5066919;28;20039;-74
2023/05/28 09:13:22;;;;;;;15.45;11.00;;;;;;;;;;5065374;28;20029;-74
2023/05/28 09:15:51;;;;;;;17.52;11.77;;;;;;;;;;5067161;28;20670;-74
2023/05/28 09:18:21;;;;;;;16.85;12.80;;;;;;;;;;5066814;28;20024;-74
2023/05/28 09:20:48;;;;;;;16.95;11.75;;;;;;;;;;5067019;28;20071;-74
2023/05/28 09:23:16;;;;;;;17.55;11.85;;;;;;;;;;5066965;28;20059;-74
2023/05/28 09:25:44;;;;;;;16.05;11.95;;;;;;;;;;5068124;28;20381;-73
2023/05/28 09:28:12;;;;;;;15.70;11.43;;;;;;;;;;5070904;28;20055;-74
2023/05/28 09:30:38;;;;;;;16.35;11.10;;;;;;;;;;5069352;28;20876;-73
2023/05/28 09:33:05;;;;;;;14.98;9.73;;;;;;;;;;5070098;28;20075;-74
2023/05/28 09:35:32;;;;;;;15.00;10.05;;;;;;;;;;5078117;28;20077;-74
2023/05/28 09:38:08;;;;;;;13.40;9.60;;;;;;;;;;5070325;28;20021;-74
2023/05/28 09:40:39;;;;;;;12.75;9.88;;;;;;;;;;5062986;28;20056;-74
2023/05/28 09:43:06;;;;;;;14.35;9.10;;;;;;;;;;5068938;28;20023;-73
2023/05/28 09:45:36;;;;;;;13.43;9.52;;;;;;;;;;5077948;28;20020;-74
2023/05/28 09:48:02;;;;;;;11.70;9.05;;;;;;;;;;5070189;28;20064;-74
2023/05/28 09:50:29;;;;;;;13.88;8.43;;;;;;;;;;5069003;28;20129;-74
2023/05/28 09:52:56;;;;;;;11.70;8.23;;;;;;;;;;5066498;28;20049;-74
2023/05/28 09:55:24;;;;;;;13.85;8.23;;;;;;;;;;5069832;28;20064;-74
2023/05/28 09:58:03;;;;;;;15.32;8.43;;;;;;;;;;5070370;28;20020;-74
2023/05/28 10:00:37;;;;;;;12.52;8.65;;;;;;;;;;5070173;28;20492;-74
2023/05/28 10:03:10;;;;;;;11.07;8.18;;;;;;;;;;5070260;28;20052;-74
2023/05/28 10:05:37;;;;;;;13.02;7.25;;;;;;;;;;5077585;28;20021;-74
2023/05/28 10:08:05;;;;;;;12.95;7.40;;;;;;;;;;5068429;28;20044;-75
2023/05/28 10:10:31;;;;;;;14.20;8.30;;;;;;;;;;5069539;28;20546;-74
2023/05/28 10:12:58;;;;;;;10.25;8.30;;;;;;;;;;5069507;28;20094;-74
2023/05/28 10:15:25;;;;;;;11.38;7.70;;;;;;;;;;5069575;28;20141;-73
2023/05/28 10:17:52;;;;;;;12.57;8.55;;;;;;;;;;5066754;28;20048;-74
2023/05/28 10:20:18;;;;;;;10.43;8.40;;;;;;;;;;5069360;28;20040;-74
2023/05/28 10:22:45;;;;;;;12.73;7.35;;;;;;;;;;5069022;28;20035;-74
2023/05/28 10:25:12;;;;;;;9.98;7.97;;;;;;;;;;5069268;28;20052;-74
2023/05/28 10:27:44;;;;;;;8.75;7.88;;;;;;;;;;5069218;28;20044;-74
2023/05/28 10:30:11;;;;;;;;;;;;;;;;;;5068281;28;20101;-74
2023/05/28 10:32:41;;;;;;;9.85;7.95;;;;;;;;;;5069111;28;19967;-74
2023/05/28 10:35:07;;;;;;;11.68;8.40;;;;;;;;;;5068828;28;20024;-75
2023/05/28 10:37:35;;;;;;;11.82;8.10;;;;;;;;;;5068142;28;20029;-75
2023/05/28 10:40:02;;;;;;;11.88;7.72;;;;;;;;;;5072946;28;20088;-79
2023/05/28 10:42:28;;;;;;;11.00;8.00;;;;;;;;;;5068635;28;20029;-79
2023/05/28 10:45:00;;;;;;;11.75;8.07;;;;;;;;;;5067069;28;20089;-81
2023/05/28 10:47:43;;;;;;;12.27;8.10;;;;;;;;;;5069344;28;20025;-85
2023/05/28 10:50:09;;;;;;;12.82;7.68;;;;;;;;;;5066601;28;20035;-83
2023/05/28 10:52:36;;;;;;;9.80;8.15;;;;;;;;;;5067468;28;20040;-84
2023/05/28 10:55:04;;;;;;;11.38;8.35;;;;;;;;;;5068761;28;20085;-82
2023/05/28 10:57:44;;;;;;;8.45;7.07;;;;;;;;;;5069616;28;20520;-81
2023/05/28 11:00:14;;;;;;;9.88;7.68;;;;;;;;;;5073016;28;20040;-80
2023/05/28 11:02:44;;;;;;;11.27;8.55;;;;;;;;;;5067272;28;20044;-80
2023/05/28 11:05:11;;;;;;;10.32;7.97;;;;;;;;;;5062800;28;20089;-79
2023/05/28 11:07:38;;;;;;;11.02;8.15;;;;;;;;;;5067418;28;20040;-80
2023/05/28 11:10:06;;;;;;;10.10;8.68;;;;;;;;;;5066928;28;20017;-78
2023/05/28 11:12:38;;;;;;;11.98;8.15;;;;;;;;;;5066012;28;20044;-80
2023/05/28 11:15:08;;;;;;;12.38;8.50;;;;;;;;;;5065189;28;20021;-78
2023/05/28 11:17:38;;;;;;;11.05;7.80;;;;;;;;;;5068248;28;20055;-80
2023/05/28 11:20:05;;;;;;;9.27;7.82;;;;;;;;;;5061605;28;20496;-81
2023/05/28 11:22:35;;;;;;;12.18;7.85;;;;;;;;;;5068039;28;20032;-82
2023/05/28 11:25:08;;;;;;;9.63;7.40;;;;;;;;;;5066754;28;20024;-77
2023/05/28 11:27:36;;;;;;;13.65;8.57;;;;;;;;;;5068196;28;20033;-78
2023/05/28 11:30:08;;;;;;;10.60;8.68;;;;;;;;;;5068255;28;20506;-81
2023/05/28 11:32:34;;;;;;;12.13;7.60;;;;;;;;;;5068351;28;20110;-80
2023/05/28 11:35:00;;;;;;;10.55;7.93;;;;;;;;;;5068122;28;20400;-81
2023/05/28 11:37:31;;;;;;;10.57;7.47;;;;;;;;;;5066808;28;20024;-78
2023/05/28 11:39:59;;;;;;;10.35;7.70;;;;;;;;;;5068225;28;20016;-74
2023/05/28 11:42:25;;;;;;;11.45;8.05;;;;;;;;;;5068242;28;20491;-81
2023/05/28 11:44:52;;;;;;;14.38;8.25;;;;;;;;;;5067602;28;20012;-81
2023/05/28 11:47:19;;;;;;;8.50;7.03;;;;;;;;;;5066658;28;20021;-83
2023/05/28 11:49:46;;;;;;;11.48;7.45;;;;;;;;;;5065253;28;20024;-83
2023/05/28 11:52:13;;;;;;;10.63;7.28;;;;;;;;;;5067983;28;20044;-77
2023/05/28 11:54:43;;;;;;;7.97;7.18;;;;;;;;;;5067572;28;20104;-82
2023/05/28 11:57:09;;;;;;;11.55;7.35;;;;;;;;;;5066198;28;20031;-82
2023/05/28 11:59:36;;;;;;;9.15;7.00;;;;;;;;;;5068065;28;20021;-81
2023/05/28 12:02:16;;;;;;;11.82;7.05;;;;;;;;;;5067754;28;20047;-78
2023/05/28 12:04:58;;;;;;;9.85;7.30;;;;;;;;;;5066087;28;20052;-79
2023/05/28 12:07:34;;;;;;;10.15;8.07;;;;;;;;;;5067558;28;20476;-80
2023/05/28 12:10:08;;;;;;;10.23;7.60;;;;;;;;;;5065441;28;20097;-76
2023/05/28 12:12:34;;;;;;;10.82;8.25;;;;;;;;;;5066629;28;20488;-79
2023/05/28 12:15:05;;;;;;;12.18;7.75;;;;;;;;;;5067235;28;20016;-80
2023/05/28 12:17:38;;;;;;;10.07;7.45;;;;;;;;;;5066032;28;20428;-81
2023/05/28 12:20:27;;;;;;;11.05;7.95;;;;;;;;;;5067476;28;20082;-80
2023/05/28 12:23:07;;;;;;;8.70;6.97;;;;;;;;;;5075031;28;20020;-81
2023/05/28 12:25:46;;;;;;;10.63;7.72;;;;;;;;;;5064661;28;20024;-82
2023/05/28 12:28:12;;;;;;;10.32;7.32;;;;;;;;;;5065826;28;20041;-81
2023/05/28 12:30:39;;;;;;;8.85;7.80;;;;;;;;;;5067314;28;20253;-82
2023/05/28 12:33:05;;;;;;;10.73;7.30;;;;;;;;;;5067608;28;20795;-82
2023/05/28 12:35:32;;;;;;;8.95;6.68;;;;;;;;;;5067081;28;20078;-81
2023/05/28 12:37:58;;;;;;;10.02;7.05;;;;;;;;;;5064218;28;20103;-81
2023/05/28 12:40:24;;;;;;;7.45;6.68;;;;;;;;;;5067553;28;20071;-81
2023/05/28 12:42:50;;;;;;;7.95;6.28;;;;;;;;;;5067800;28;20032;-81
2023/05/28 12:45:17;;;;;;;11.65;7.00;;;;;;;;;;5065969;28;20108;-81
2023/05/28 12:47:43;;;;;;;9.20;7.07;;;;;;;;;;5067633;28;20020;-80
2023/05/28 12:50:09;;;;;;;9.07;7.32;;;;;;;;;;5063255;28;20112;-82
2023/05/28 12:52:35;;;;;;;8.13;6.90;;;;;;;;;;5062808;28;20637;-81
2023/05/28 12:55:02;;;;;;;8.95;7.47;;;;;;;;;;5067099;28;20108;-78
2023/05/28 12:57:28;;;;;;;7.90;7.10;;;;;;;;;;5064113;28;20060;-77
2023/05/28 12:59:57;;;;;;;9.70;8.13;;;;;;;;;;5063371;28;20024;-81
2023/05/28 13:02:23;;;;;;;8.25;7.32;;;;;;;;;;5066648;28;20419;-74
2023/05/28 13:04:49;;;;;;;9.35;7.07;;;;;;;;;;5067222;28;20021;-79
2023/05/28 13:07:16;;;;;;;10.13;7.53;;;;;;;;;;5070573;28;20029;-81
2023/05/28 13:09:42;;;;;;;9.98;8.00;;;;;;;;;;5067429;28;20477;-82
2023/05/28 13:12:08;;;;;;;9.20;7.25;;;;;;;;;;5067069;28;20115;-75
2023/05/28 13:14:35;;;;;;;7.32;6.53;;;;;;;;;;5065936;28;20048;-78
2023/05/28 13:17:02;;;;;;;11.25;6.25;;;;;;;;;;5068117;28;20028;-83
2023/05/28 13:19:28;;;;;;;7.72;6.10;;;;;;;;;;5067185;28;20519;-79
2023/05/28 13:21:54;;;;;;;8.43;6.15;;;;;;;;;;5066334;28;20133;-77
2023/05/28 13:24:21;;;;;;;10.25;6.55;;;;;;;;;;5072691;28;20031;-83
2023/05/28 13:26:47;;;;;;;10.32;6.68;;;;;;;;;;5067614;28;20032;-83
2023/05/28 13:29:13;;;;;;;7.72;6.15;;;;;;;;;;5067695;28;20031;-82
2023/05/28 13:31:40;;;;;;;8.50;6.93;;;;;;;;;;5066936;28;20059;-75
2023/05/28 13:34:06;;;;;;;9.13;6.72;;;;;;;;;;5066593;28;20071;-82
2023/05/28 13:36:32;;;;;;;9.95;7.18;;;;;;;;;;5064758;28;20100;-83
2023/05/28 13:38:59;;;;;;;11.05;6.72;;;;;;;;;;5066796;28;20544;-82
2023/05/28 13:41:25;;;;;;;10.25;7.18;;;;;;;;;;5073018;28;20036;-82
2023/05/28 13:43:55;;;;;;;7.28;6.57;;;;;;;;;;5069003;28;20032;-77
2023/05/28 13:46:24;;;;;;;6.80;6.13;;;;;;;;;;5062317;28;20032;-82
2023/05/28 13:48:51;;;;;;;9.23;6.10;;;;;;;;;;5066844;28;20094;-82
2023/05/28 13:51:18;;;;;;;6.80;6.15;;;;;;;;;;5066081;28;20040;-77
2023/05/28 13:53:45;;;;;;;9.25;7.22;;;;;;;;;;5066765;28;20539;-81
2023/05/28 13:56:12;;;;;;;8.15;7.15;;;;;;;;;;5065282;28;20749;-79
2023/05/28 13:58:38;;;;;;;9.73;7.38;;;;;;;;;;5065334;28;20146;-79
2023/05/28 14:01:05;;;;;;;9.63;6.97;;;;;;;;;;5069203;28;20058;-81
2023/05/28 14:03:31;;;;;;;10.00;7.35;;;;;;;;;;5068406;28;20523;-78
2023/05/28 14:05:57;;;;;;;9.15;6.97;;;;;;;;;;5065649;28;20448;-81
2023/05/28 14:08:24;;;;;;;7.32;6.57;;;;;;;;;;5072531;28;20028;-79
2023/05/28 14:10:50;;;;;;;9.35;7.68;;;;;;;;;;5073817;28;20480;-80
2023/05/28 14:13:16;;;;;;;8.25;5.95;;;;;;;;;;5066504;28;20076;-80
2023/05/28 14:15:42;;;;;;;8.05;6.75;;;;;;;;;;5064470;28;20024;-82
2023/05/28 14:18:08;;;;;;;8.95;6.78;;;;;;;;;;5065659;28;20028;-83
2023/05/28 14:20:35;;;;;;;8.98;6.45;;;;;;;;;;5064741;28;20109;-82
2023/05/28 14:23:02;;;;;;;8.20;7.20;;;;;;;;;;5066143;28;20122;-79
2023/05/28 14:25:28;;;;;;;7.55;6.50;;;;;;;;;;5066845;28;20037;-81